createdAt,value
2019-06-26T00:00:53.908Z,22.95
2019-06-26T00:03:23.782Z,22.99
2019-06-26T00:05:53.872Z,22.99
2019-06-26T00:08:23.782Z,22.97
2019-06-26T00:10:53.848Z,22.90
2019-06-26T00:13:26.732Z,22.82
2019-06-26T00:15:55.329Z,22.77
2019-06-26T00:18:25.058Z,22.74
2019-06-26T00:20:54.658Z,22.71
2019-06-26T00:23:24.356Z,22.62
2019-06-26T00:25:54.289Z,22.50
2019-06-26T00:28:24.400Z,22.44
2019-06-26T00:30:53.946Z,22.41
2019-06-26T00:33:23.787Z,22.34
2019-06-26T00:35:53.882Z,22.32
2019-06-26T00:38:23.660Z,22.21
2019-06-26T00:40:53.439Z,22.09
2019-06-26T00:43:23.230Z,22.02
2019-06-26T00:45:53.496Z,21.97
2019-06-26T00:48:23.270Z,21.96
2019-06-26T00:50:53.221Z,22.00
2019-06-26T00:53:22.879Z,22.04
2019-06-26T00:55:55.220Z,22.01
2019-06-26T00:58:24.896Z,22.00
2019-06-26T01:00:55.148Z,21.95
2019-06-26T01:03:25.277Z,21.93
2019-06-26T01:05:55.040Z,21.90
2019-06-26T01:08:24.934Z,21.89
2019-06-26T01:10:54.822Z,21.89
2019-06-26T01:13:24.512Z,21.91
2019-06-26T01:15:54.205Z,21.96
2019-06-26T01:18:23.969Z,21.95
2019-06-26T01:20:54.019Z,21.85
2019-06-26T01:23:23.752Z,21.76
2019-06-26T01:25:53.679Z,21.68
2019-06-26T01:28:23.667Z,21.65
2019-06-26T01:30:53.604Z,21.67
2019-06-26T01:33:23.533Z,21.67
2019-06-26T01:35:53.616Z,21.65
2019-06-26T01:38:23.446Z,21.63
2019-06-26T01:40:53.398Z,21.60
2019-06-26T01:43:23.143Z,21.56
2019-06-26T01:45:52.979Z,21.54
2019-06-26T01:48:22.682Z,21.56
2019-06-26T01:50:52.446Z,21.52
2019-06-26T01:53:22.139Z,21.49
2019-06-26T01:55:51.888Z,21.46
2019-06-26T01:58:21.543Z,21.44
2019-06-26T02:00:51.296Z,21.45
2019-06-26T02:03:20.961Z,21.44
2019-06-26T02:05:50.711Z,21.39
2019-06-26T02:08:20.381Z,21.36
2019-06-26T02:10:50.161Z,21.32
2019-06-26T02:13:19.890Z,21.26
2019-06-26T02:15:49.664Z,21.24
2019-06-26T02:18:36.205Z,21.23
2019-06-26T02:21:05.946Z,21.22
2019-06-26T02:23:35.731Z,21.19
2019-06-26T02:26:05.953Z,21.16
2019-06-26T02:28:35.695Z,21.14
2019-06-26T02:31:05.562Z,21.15
2019-06-26T02:33:35.172Z,21.12
2019-06-26T02:36:05.196Z,21.10
2019-06-26T02:38:34.833Z,21.07
2019-06-26T02:41:04.821Z,21.05
2019-06-26T02:43:35.267Z,21.02
2019-06-26T02:46:05.365Z,21.00
2019-06-26T02:48:35.096Z,21.00
2019-06-26T02:51:05.225Z,20.96
2019-06-26T02:53:35.111Z,20.94
2019-06-26T02:56:04.952Z,20.89
2019-06-26T02:58:34.624Z,20.85
2019-06-26T03:01:04.831Z,20.83
2019-06-26T03:03:34.780Z,20.82
2019-06-26T03:06:04.735Z,20.81
2019-06-26T03:08:34.743Z,20.77
2019-06-26T03:11:05.682Z,20.73
2019-06-26T03:13:36.391Z,20.71
2019-06-26T03:16:06.942Z,20.70
2019-06-26T03:18:37.288Z,20.69
2019-06-26T03:21:07.654Z,20.65
2019-06-26T03:23:38.123Z,20.61
2019-06-26T03:26:09.032Z,20.58
2019-06-26T03:28:39.818Z,20.56
2019-06-26T03:31:10.704Z,20.54
2019-06-26T03:33:41.758Z,20.51
2019-06-26T03:36:12.336Z,20.52
2019-06-26T03:38:42.948Z,20.52
2019-06-26T03:41:13.713Z,20.54
2019-06-26T03:43:44.296Z,20.53
2019-06-26T03:46:15.098Z,20.48
2019-06-26T03:48:45.868Z,20.44
2019-06-26T03:51:16.113Z,20.46
2019-06-26T03:53:47.170Z,20.52
2019-06-26T03:56:17.555Z,20.56
2019-06-26T03:58:48.084Z,20.61
2019-06-26T04:01:18.584Z,20.66
2019-06-26T04:03:49.222Z,20.71
2019-06-26T04:06:19.756Z,20.77
2019-06-26T04:08:50.468Z,20.83
2019-06-26T04:11:20.802Z,20.87
2019-06-26T04:13:51.319Z,20.90
2019-06-26T04:16:22.297Z,20.89
2019-06-26T04:18:52.948Z,20.91
2019-06-26T04:21:23.735Z,20.92
2019-06-26T04:23:53.988Z,20.95
2019-06-26T04:26:24.727Z,20.99
2019-06-26T04:28:55.220Z,21.02
2019-06-26T04:31:25.469Z,21.06
2019-06-26T04:33:55.991Z,21.13
2019-06-26T04:36:26.652Z,21.17
2019-06-26T04:38:57.278Z,21.23
2019-06-26T04:41:27.997Z,21.29
2019-06-26T04:43:58.746Z,21.36
2019-06-26T04:46:29.797Z,21.43
2019-06-26T04:49:00.139Z,21.48
2019-06-26T04:51:30.801Z,21.55
2019-06-26T04:54:01.293Z,21.60
2019-06-26T04:56:31.784Z,21.67
2019-06-26T04:59:02.271Z,21.79
2019-06-26T05:01:32.598Z,21.86
2019-06-26T05:04:02.978Z,21.90
2019-06-26T05:06:33.546Z,21.95
2019-06-26T05:09:04.915Z,22.00
2019-06-26T05:11:35.667Z,22.06
2019-06-26T05:14:06.512Z,22.14
2019-06-26T05:16:37.308Z,22.22
2019-06-26T05:19:07.717Z,22.30
2019-06-26T05:21:38.452Z,22.46
2019-06-26T05:24:09.125Z,22.67
2019-06-26T05:26:40.255Z,23.06
2019-06-26T05:29:11.068Z,23.32
2019-06-26T05:31:41.666Z,23.37
2019-06-26T05:34:12.206Z,23.36
2019-06-26T05:36:43.333Z,23.39
2019-06-26T05:39:13.720Z,23.43
2019-06-26T05:41:44.687Z,23.46
2019-06-26T05:44:15.387Z,23.52
2019-06-26T05:46:47.251Z,23.71
2019-06-26T05:49:18.053Z,23.90
2019-06-26T05:51:48.752Z,24.11
2019-06-26T05:54:19.611Z,24.18
2019-06-26T05:56:50.389Z,24.20
2019-06-26T05:59:20.887Z,24.18
2019-06-26T06:01:50.998Z,24.21
2019-06-26T06:04:22.061Z,24.25
2019-06-26T06:06:52.491Z,24.27
2019-06-26T06:09:22.945Z,24.34
2019-06-26T06:11:53.119Z,24.39
2019-06-26T06:14:23.729Z,24.42
2019-06-26T06:16:54.225Z,24.50
2019-06-26T06:19:24.611Z,24.56
2019-06-26T06:21:55.007Z,24.59
2019-06-26T06:24:25.050Z,24.74
2019-06-26T06:26:55.062Z,24.73
2019-06-26T06:29:25.310Z,24.83
2019-06-26T06:31:55.552Z,24.87
2019-06-26T06:34:25.820Z,25.01
2019-06-26T06:36:56.324Z,25.20
2019-06-26T06:39:26.739Z,25.31
2019-06-26T06:41:57.548Z,25.36
2019-06-26T06:44:28.054Z,25.38
2019-06-26T06:47:04.027Z,25.36
2019-06-26T06:49:30.589Z,25.38
2019-06-26T06:52:01.580Z,25.48
2019-06-26T06:54:32.202Z,25.56
2019-06-26T06:57:02.805Z,25.70
2019-06-26T06:59:33.392Z,25.81
2019-06-26T07:02:04.055Z,25.90
2019-06-26T07:04:34.494Z,26.04
2019-06-26T07:07:05.222Z,26.12
2019-06-26T07:09:35.914Z,26.23
2019-06-26T07:12:06.402Z,26.37
2019-06-26T07:14:37.054Z,26.37
2019-06-26T07:17:19.734Z,26.56
2019-06-26T07:19:39.707Z,26.68
2019-06-26T07:22:10.021Z,26.84
2019-06-26T07:24:40.161Z,26.95
2019-06-26T07:27:10.369Z,26.92
2019-06-26T07:29:40.633Z,27.05
2019-06-26T07:32:11.255Z,27.02
2019-06-26T07:34:41.383Z,27.18
2019-06-26T07:37:11.700Z,27.18
2019-06-26T07:39:42.079Z,27.42
2019-06-26T07:42:12.397Z,27.57
2019-06-26T07:44:42.513Z,27.75
2019-06-26T07:47:23.070Z,27.94
2019-06-26T07:49:44.642Z,28.07
2019-06-26T07:52:14.829Z,28.20
2019-06-26T07:54:45.087Z,28.26
2019-06-26T07:57:15.634Z,28.11
2019-06-26T07:59:45.968Z,28.19
2019-06-26T08:02:16.262Z,28.37
2019-06-26T08:04:46.630Z,28.48
2019-06-26T08:07:16.864Z,28.77
2019-06-26T08:09:47.225Z,28.93
2019-06-26T08:12:17.512Z,29.20
2019-06-26T08:14:47.730Z,29.38
2019-06-26T08:17:18.142Z,29.50
2019-06-26T08:19:48.376Z,29.64
2019-06-26T08:22:18.605Z,29.76
2019-06-26T08:24:49.046Z,29.93
2019-06-26T08:27:19.550Z,30.08
2019-06-26T08:29:49.990Z,30.19
2019-06-26T08:32:20.213Z,30.32
2019-06-26T08:34:50.568Z,30.28
2019-06-26T08:37:20.927Z,30.35
2019-06-26T08:39:50.846Z,30.51
2019-06-26T08:42:20.938Z,30.63
2019-06-26T08:44:50.973Z,30.81
2019-06-26T08:47:21.358Z,30.88
2019-06-26T08:49:51.683Z,31.06
2019-06-26T08:52:22.290Z,30.91
2019-06-26T08:54:52.334Z,31.08
2019-06-26T08:57:22.842Z,31.22
2019-06-26T08:59:53.280Z,31.42
2019-06-26T09:02:23.621Z,31.58
2019-06-26T09:04:53.902Z,31.66
2019-06-26T09:07:24.130Z,31.76
2019-06-26T09:09:54.213Z,31.99
2019-06-26T09:12:24.304Z,32.09
2019-06-26T09:14:54.463Z,32.21
2019-06-26T09:17:24.968Z,32.40
2019-06-26T09:19:55.332Z,32.91
2019-06-26T09:22:25.594Z,33.40
2019-06-26T09:24:55.849Z,33.90
2019-06-26T09:27:26.336Z,34.58
2019-06-26T09:29:56.379Z,34.62
2019-06-26T09:32:26.531Z,35.00
2019-06-26T09:34:56.838Z,35.47
2019-06-26T09:37:27.205Z,35.48
2019-06-26T09:39:57.644Z,35.71
2019-06-26T09:42:27.705Z,35.34
2019-06-26T09:44:57.724Z,35.26
2019-06-26T09:47:30.860Z,35.49
2019-06-26T09:49:59.547Z,35.23
2019-06-26T09:52:30.535Z,35.52
2019-06-26T09:55:00.842Z,35.32
2019-06-26T09:57:31.140Z,35.76
2019-06-26T10:00:01.283Z,35.51
2019-06-26T10:02:31.739Z,35.43
2019-06-26T10:05:01.855Z,35.94
2019-06-26T10:07:32.028Z,36.46
2019-06-26T10:10:02.375Z,36.86
2019-06-26T10:12:32.514Z,36.81
2019-06-26T10:15:02.823Z,35.75
2019-06-26T10:17:33.132Z,36.17
2019-06-26T10:20:03.263Z,35.90
2019-06-26T10:22:33.596Z,36.12
2019-06-26T10:25:03.834Z,36.13
2019-06-26T10:27:34.140Z,36.54
2019-06-26T10:30:05.942Z,37.16
2019-06-26T10:32:36.078Z,37.31
2019-06-26T10:35:07.709Z,37.76
2019-06-26T10:37:38.114Z,37.88
2019-06-26T10:40:08.637Z,38.17
2019-06-26T10:42:38.660Z,38.45
2019-06-26T10:45:10.201Z,38.74
2019-06-26T10:47:40.660Z,38.59
2019-06-26T10:50:10.985Z,38.59
2019-06-26T10:52:41.347Z,38.73
2019-06-26T10:55:12.812Z,38.30
2019-06-26T10:57:42.783Z,38.38
2019-06-26T11:00:13.430Z,38.67
2019-06-26T11:02:44.260Z,38.57
2019-06-26T11:05:15.815Z,37.93
2019-06-26T11:07:46.022Z,38.03
2019-06-26T11:10:16.755Z,38.15
2019-06-26T11:12:49.015Z,38.04
2019-06-26T11:15:18.900Z,37.76
2019-06-26T11:17:48.932Z,38.36
2019-06-26T11:20:19.514Z,39.01
2019-06-26T11:22:50.099Z,39.44
2019-06-26T11:25:22.045Z,39.62
2019-06-26T11:27:52.287Z,39.35
2019-06-26T11:30:23.194Z,39.51
2019-06-26T11:32:53.703Z,39.49
2019-06-26T11:35:23.987Z,39.58
2019-06-26T11:37:54.406Z,38.61
2019-06-26T11:40:24.884Z,38.71
2019-06-26T11:42:54.923Z,39.01
2019-06-26T11:45:25.234Z,39.61
2019-06-26T11:47:55.488Z,38.62
2019-06-26T11:50:26.020Z,39.25
2019-06-26T11:52:56.301Z,39.96
2019-06-26T11:55:26.386Z,39.80
2019-06-26T11:57:56.472Z,40.15
2019-06-26T12:00:28.348Z,39.80
2019-06-26T12:02:59.106Z,40.57
2019-06-26T12:05:29.382Z,41.22
2019-06-26T12:07:59.574Z,40.81
2019-06-26T12:10:29.709Z,41.13
2019-06-26T12:13:03.744Z,40.79
2019-06-26T12:15:32.049Z,41.01
2019-06-26T12:18:02.343Z,40.24
2019-06-26T12:20:32.842Z,41.00
2019-06-26T12:23:03.024Z,41.30
2019-06-26T12:25:33.790Z,41.54
2019-06-26T12:28:03.977Z,41.98
2019-06-26T12:30:34.349Z,41.92
2019-06-26T12:33:04.592Z,41.09
2019-06-26T12:35:35.099Z,41.33
2019-06-26T12:38:05.324Z,41.46
2019-06-26T12:40:35.550Z,40.96
2019-06-26T12:43:06.039Z,41.74
2019-06-26T12:45:36.844Z,41.40
2019-06-26T12:48:07.276Z,41.81
2019-06-26T12:50:37.682Z,41.46
2019-06-26T12:53:08.272Z,40.79
2019-06-26T12:55:39.001Z,41.43
2019-06-26T12:58:13.835Z,40.66
2019-06-26T13:00:41.590Z,41.37
2019-06-26T13:03:12.194Z,41.80
2019-06-26T13:05:42.626Z,42.42
2019-06-26T13:08:12.702Z,41.80
2019-06-26T13:10:49.467Z,41.33
2019-06-26T13:13:15.249Z,41.67
2019-06-26T13:15:45.467Z,42.21
2019-06-26T13:18:15.702Z,42.21
2019-06-26T13:20:52.809Z,42.12
2019-06-26T13:23:18.083Z,41.42
2019-06-26T13:25:48.224Z,41.06
2019-06-26T13:28:18.620Z,40.45
2019-06-26T13:30:48.892Z,41.40
2019-06-26T13:33:18.966Z,41.74
2019-06-26T13:35:49.332Z,42.30
2019-06-26T13:38:19.531Z,41.81
2019-06-26T13:40:49.580Z,41.35
2019-06-26T13:43:20.557Z,41.25
2019-06-26T13:45:51.069Z,41.80
2019-06-26T13:48:21.620Z,41.64
2019-06-26T13:51:07.858Z,41.77
2019-06-26T13:53:24.618Z,41.76
2019-06-26T13:55:55.099Z,42.39
2019-06-26T13:58:25.715Z,43.07
2019-06-26T14:00:56.307Z,42.91
2019-06-26T14:03:26.605Z,42.25
2019-06-26T14:05:57.209Z,42.20
2019-06-26T14:08:28.190Z,42.25
2019-06-26T14:10:58.524Z,42.23
2019-06-26T14:13:29.007Z,42.55
2019-06-26T14:15:59.246Z,42.34
2019-06-26T14:18:30.542Z,42.56
2019-06-26T14:21:00.813Z,42.62
2019-06-26T14:23:31.182Z,41.96
2019-06-26T14:26:01.450Z,42.16
2019-06-26T14:28:31.742Z,42.33
2019-06-26T14:31:01.887Z,42.36
2019-06-26T14:33:32.261Z,41.83
2019-06-26T14:36:02.906Z,41.81
2019-06-26T14:38:33.227Z,41.97
2019-06-26T14:41:03.611Z,41.74
2019-06-26T14:43:34.427Z,42.40
2019-06-26T14:46:05.065Z,41.97
2019-06-26T14:48:36.142Z,41.76
2019-06-26T14:51:06.765Z,41.49
2019-06-26T14:53:36.916Z,41.32
2019-06-26T14:56:07.434Z,41.26
2019-06-26T14:58:38.115Z,41.49
2019-06-26T15:01:08.757Z,41.82
2019-06-26T15:03:39.311Z,41.56
2019-06-26T15:06:16.231Z,42.03
2019-06-26T15:08:42.151Z,42.38
2019-06-26T15:11:15.545Z,42.35
2019-06-26T15:13:44.972Z,42.29
2019-06-26T15:16:15.436Z,42.05
2019-06-26T15:18:45.799Z,41.83
2019-06-26T15:21:16.063Z,41.82
2019-06-26T15:23:46.777Z,41.90
2019-06-26T15:26:17.324Z,40.98
2019-06-26T15:28:48.102Z,41.40
2019-06-26T15:31:18.301Z,40.66
2019-06-26T15:33:49.187Z,40.57
2019-06-26T15:36:19.359Z,40.18
2019-06-26T15:38:49.600Z,39.51
2019-06-26T15:41:20.406Z,38.87
2019-06-26T15:43:50.858Z,38.47
2019-06-26T15:46:21.255Z,38.39
2019-06-26T15:48:51.587Z,38.51
2019-06-26T15:51:22.241Z,38.39
2019-06-26T15:53:52.588Z,38.50
2019-06-26T15:56:22.993Z,38.46
2019-06-26T15:58:53.474Z,38.27
2019-06-26T16:01:25.374Z,38.30
2019-06-26T16:03:55.709Z,38.32
2019-06-26T16:06:26.265Z,38.17
2019-06-26T16:08:56.776Z,37.99
2019-06-26T16:11:27.656Z,37.41
2019-06-26T16:13:59.449Z,37.63
2019-06-26T16:16:30.417Z,37.79
2019-06-26T16:19:06.982Z,37.57
2019-06-26T16:21:37.636Z,37.47
2019-06-26T16:24:08.098Z,37.32
2019-06-26T16:26:38.522Z,37.31
2019-06-26T16:29:09.073Z,37.47
2019-06-26T16:31:39.775Z,37.43
2019-06-26T16:34:09.991Z,36.84
2019-06-26T16:36:40.401Z,36.79
2019-06-26T16:39:11.242Z,36.51
2019-06-26T16:41:42.098Z,36.45
2019-06-26T16:44:12.822Z,36.66
2019-06-26T16:46:43.317Z,36.94
2019-06-26T16:49:14.008Z,37.17
2019-06-26T16:51:44.578Z,37.03
2019-06-26T16:54:14.989Z,36.71
2019-06-26T16:56:45.287Z,36.60
2019-06-26T16:59:15.768Z,36.34
2019-06-26T17:01:45.923Z,36.15
2019-06-26T17:04:16.094Z,36.18
2019-06-26T17:06:46.231Z,36.08
2019-06-26T17:09:16.601Z,36.26
2019-06-26T17:11:46.790Z,36.07
2019-06-26T17:14:17.459Z,35.73
2019-06-26T17:16:47.484Z,35.54
2019-06-26T17:19:17.910Z,35.31
2019-06-26T17:21:49.010Z,35.11
2019-06-26T17:24:19.449Z,34.74
2019-06-26T17:26:49.534Z,34.64
2019-06-26T17:29:20.287Z,34.53
2019-06-26T17:31:50.725Z,34.71
2019-06-26T17:34:20.922Z,34.91
2019-06-26T17:36:51.493Z,35.26
2019-06-26T17:39:22.117Z,35.49
2019-06-26T17:41:53.046Z,35.63
2019-06-26T17:44:23.677Z,35.68
2019-06-26T17:46:54.075Z,35.60
2019-06-26T17:49:24.711Z,35.51
2019-06-26T17:51:55.428Z,35.43
2019-06-26T17:54:25.670Z,35.23
2019-06-26T17:56:56.297Z,35.20
2019-06-26T17:59:26.813Z,35.20
2019-06-26T18:01:57.584Z,35.08
2019-06-26T18:04:27.752Z,35.00
2019-06-26T18:06:58.377Z,34.92
2019-06-26T18:09:29.210Z,34.90
2019-06-26T18:11:59.690Z,34.85
2019-06-26T18:14:30.363Z,34.80
2019-06-26T18:17:01.266Z,34.67
2019-06-26T18:19:31.820Z,34.44
2019-06-26T18:22:01.845Z,34.17
2019-06-26T18:24:32.411Z,33.88
2019-06-26T18:27:02.516Z,33.63
2019-06-26T18:29:32.733Z,33.38
2019-06-26T18:32:03.143Z,32.89
2019-06-26T18:34:34.045Z,32.70
2019-06-26T18:37:04.444Z,32.49
2019-06-26T18:39:34.933Z,32.37
2019-06-26T18:42:05.604Z,32.13
2019-06-26T18:44:35.907Z,32.02
2019-06-26T18:47:07.139Z,31.87
2019-06-26T18:49:37.318Z,31.85
2019-06-26T18:52:07.989Z,31.87
2019-06-26T18:54:38.385Z,31.85
2019-06-26T18:57:08.743Z,31.76
2019-06-26T18:59:42.209Z,31.64
2019-06-26T19:02:11.452Z,31.50
2019-06-26T19:04:41.982Z,31.31
2019-06-26T19:07:12.265Z,31.16
2019-06-26T19:09:42.611Z,31.08
2019-06-26T19:12:12.675Z,30.98
2019-06-26T19:14:46.078Z,30.90
2019-06-26T19:17:15.522Z,30.80
2019-06-26T19:19:46.090Z,30.81
2019-06-26T19:22:16.736Z,30.73
2019-06-26T19:24:46.842Z,30.68
2019-06-26T19:27:17.781Z,30.68
2019-06-26T19:29:48.007Z,30.72
2019-06-26T19:32:18.353Z,30.66
2019-06-26T19:34:48.627Z,30.59
2019-06-26T19:37:19.290Z,30.60
2019-06-26T19:39:49.896Z,30.49
2019-06-26T19:42:20.296Z,30.50
2019-06-26T19:44:50.766Z,30.38
2019-06-26T19:47:21.232Z,30.32
2019-06-26T19:49:51.746Z,30.19
2019-06-26T19:52:22.620Z,30.18
2019-06-26T19:54:52.751Z,30.18
2019-06-26T19:57:23.665Z,30.13
2019-06-26T19:59:54.161Z,30.13
2019-06-26T20:02:24.693Z,30.12
2019-06-26T20:04:55.739Z,29.98
2019-06-26T20:07:27.448Z,29.96
2019-06-26T20:10:01.563Z,29.98
2019-06-26T20:12:29.814Z,29.98
2019-06-26T20:14:59.795Z,29.92
2019-06-26T20:17:30.367Z,29.80
2019-06-26T20:20:00.627Z,29.81
2019-06-26T20:22:30.668Z,29.96
2019-06-26T20:25:00.736Z,30.02
2019-06-26T20:27:30.622Z,29.98
2019-06-26T20:30:00.360Z,29.91
2019-06-26T20:32:30.161Z,29.91
2019-06-26T20:35:00.087Z,29.91
2019-06-26T20:37:30.105Z,29.83
2019-06-26T20:39:59.816Z,29.76
2019-06-26T20:42:29.563Z,29.71
2019-06-26T20:44:59.420Z,29.60
2019-06-26T20:47:29.155Z,29.52
2019-06-26T20:49:58.951Z,29.48
2019-06-26T20:52:28.763Z,29.34
2019-06-26T20:55:01.882Z,29.27
2019-06-26T20:57:30.179Z,29.26
2019-06-26T20:59:59.822Z,29.16
2019-06-26T21:02:29.747Z,29.02
2019-06-26T21:04:59.557Z,28.90
2019-06-26T21:07:29.227Z,28.87
2019-06-26T21:09:58.964Z,28.78
2019-06-26T21:12:28.730Z,28.77
2019-06-26T21:14:58.407Z,28.65
2019-06-26T21:17:28.289Z,28.53
2019-06-26T21:19:58.084Z,28.44
2019-06-26T21:22:27.824Z,28.37
2019-06-26T21:24:57.681Z,28.31
2019-06-26T21:27:27.532Z,28.21
2019-06-26T21:29:57.176Z,28.13
2019-06-26T21:32:27.069Z,28.08
2019-06-26T21:34:56.819Z,28.00
2019-06-26T21:37:26.675Z,27.95
2019-06-26T21:39:56.351Z,27.92
2019-06-26T21:42:26.091Z,27.85
2019-06-26T21:44:55.678Z,27.82
2019-06-26T21:47:25.296Z,27.73
2019-06-26T21:49:55.016Z,27.65
2019-06-26T21:52:24.754Z,27.58
2019-06-26T21:54:54.586Z,27.52
2019-06-26T21:57:24.547Z,27.51
2019-06-26T21:59:54.551Z,27.43
2019-06-26T22:02:24.592Z,27.36
2019-06-26T22:04:54.451Z,27.34
2019-06-26T22:07:24.737Z,27.24
2019-06-26T22:09:55.576Z,27.24
2019-06-26T22:12:25.654Z,27.16
2019-06-26T22:14:55.462Z,27.11
2019-06-26T22:17:25.483Z,27.04
2019-06-26T22:19:55.177Z,26.96
2019-06-26T22:22:25.134Z,26.96
2019-06-26T22:24:54.964Z,26.91
2019-06-26T22:27:24.950Z,26.91
2019-06-26T22:29:54.858Z,26.84
2019-06-26T22:32:24.805Z,26.79
2019-06-26T22:34:54.935Z,26.70
2019-06-26T22:37:25.018Z,26.60
2019-06-26T22:39:54.887Z,26.53
2019-06-26T22:42:25.126Z,26.52
2019-06-26T22:44:54.887Z,26.46
2019-06-26T22:47:24.709Z,26.46
2019-06-26T22:49:54.598Z,26.42
2019-06-26T22:52:24.738Z,26.34
2019-06-26T22:54:54.505Z,26.28
2019-06-26T22:57:24.673Z,26.27
2019-06-26T22:59:54.398Z,26.26
2019-06-26T23:02:24.544Z,26.25
2019-06-26T23:04:54.297Z,26.32
2019-06-26T23:07:24.309Z,26.29
2019-06-26T23:09:54.086Z,26.22
2019-06-26T23:12:23.986Z,26.14
2019-06-26T23:14:53.691Z,26.07
2019-06-26T23:17:23.762Z,26.12
2019-06-26T23:19:53.579Z,26.07
2019-06-26T23:22:23.534Z,26.03
2019-06-26T23:24:53.230Z,26.02
2019-06-26T23:27:22.972Z,25.96
2019-06-26T23:29:52.614Z,25.90
2019-06-26T23:32:22.291Z,25.88
2019-06-26T23:34:52.070Z,25.91
2019-06-26T23:37:21.777Z,25.87
2019-06-26T23:39:51.724Z,25.84
2019-06-26T23:42:21.570Z,25.77
2019-06-26T23:44:51.449Z,25.70
2019-06-26T23:47:21.324Z,25.74
2019-06-26T23:49:51.109Z,25.69
2019-06-26T23:52:20.746Z,25.63
2019-06-26T23:54:50.440Z,25.57
2019-06-26T23:57:20.292Z,25.53
2019-06-26T23:59:50.038Z,25.52
